createdAt,value
2022-11-21T00:00:57.719Z,6.55
2022-11-21T00:03:24.820Z,6.51
2022-11-21T00:05:51.791Z,6.48
2022-11-21T00:08:20.665Z,6.48
2022-11-21T00:10:48.543Z,6.43
2022-11-21T00:13:18.479Z,6.38
2022-11-21T00:15:46.139Z,6.32
2022-11-21T00:18:15.892Z,6.29
2022-11-21T00:20:43.618Z,6.35
2022-11-21T00:23:11.763Z,6.34
2022-11-21T00:25:39.007Z,6.32
2022-11-21T00:28:06.113Z,6.30
2022-11-21T00:30:33.089Z,6.36
2022-11-21T00:33:00.046Z,6.41
2022-11-21T00:35:27.163Z,6.45
2022-11-21T00:37:54.356Z,6.49
2022-11-21T00:40:21.315Z,6.53
2022-11-21T00:42:48.417Z,6.57
2022-11-21T00:45:19.658Z,6.62
2022-11-21T00:47:49.603Z,6.63
2022-11-21T00:50:16.424Z,6.63
2022-11-21T00:52:43.242Z,6.65
2022-11-21T00:55:10.302Z,6.66
2022-11-21T00:57:37.081Z,6.63
2022-11-21T01:00:05.647Z,6.66
2022-11-21T01:02:32.853Z,6.64
2022-11-21T01:04:59.841Z,6.63
2022-11-21T01:07:26.647Z,6.62
2022-11-21T01:09:53.531Z,6.57
2022-11-21T01:12:20.295Z,6.54
2022-11-21T01:14:47.211Z,6.53
2022-11-21T01:17:14.448Z,6.48
2022-11-21T01:19:41.436Z,6.38
2022-11-21T01:22:08.385Z,6.19
2022-11-21T01:24:35.162Z,6.14
2022-11-21T01:27:01.996Z,5.99
2022-11-21T01:29:28.836Z,5.92
2022-11-21T01:31:55.599Z,5.87
2022-11-21T01:34:22.609Z,5.82
2022-11-21T01:36:49.432Z,5.83
2022-11-21T01:39:16.274Z,5.88
2022-11-21T01:41:45.837Z,5.85
2022-11-21T01:44:24.607Z,5.83
2022-11-21T01:46:52.665Z,5.86
2022-11-21T01:49:32.496Z,5.86
2022-11-21T01:52:08.436Z,5.88
2022-11-21T01:54:58.817Z,5.89
2022-11-21T01:57:48.172Z,5.88
2022-11-21T02:00:22.873Z,5.90
2022-11-21T02:02:58.709Z,5.94
2022-11-21T02:05:29.369Z,5.87
2022-11-21T02:08:02.472Z,5.94
2022-11-21T02:10:29.404Z,5.99
2022-11-21T02:12:58.788Z,6.00
2022-11-21T02:15:28.041Z,6.05
2022-11-21T02:17:55.231Z,6.02
2022-11-21T02:20:25.031Z,6.02
2022-11-21T02:23:25.046Z,6.03
2022-11-21T02:25:52.325Z,6.05
2022-11-21T02:28:20.991Z,6.11
2022-11-21T02:30:47.758Z,6.14
2022-11-21T02:33:14.701Z,6.14
2022-11-21T02:35:41.783Z,6.13
2022-11-21T02:38:22.493Z,6.18
2022-11-21T02:40:58.574Z,6.19
2022-11-21T02:43:38.858Z,6.18
2022-11-21T02:46:05.585Z,6.18
2022-11-21T02:48:32.398Z,6.24
2022-11-21T02:51:03.234Z,6.26
2022-11-21T02:53:30.103Z,6.28
2022-11-21T02:55:57.006Z,6.29
2022-11-21T02:58:24.127Z,6.32
2022-11-21T03:00:51.136Z,6.30
2022-11-21T03:03:18.001Z,6.35
2022-11-21T03:05:44.741Z,6.37
2022-11-21T03:08:11.725Z,6.39
2022-11-21T03:10:38.571Z,6.43
2022-11-21T03:13:05.492Z,6.46
2022-11-21T03:15:34.456Z,6.47
2022-11-21T03:18:02.945Z,6.48
2022-11-21T03:20:31.249Z,6.49
2022-11-21T03:22:58.193Z,6.46
2022-11-21T03:25:25.127Z,6.47
2022-11-21T03:27:53.486Z,6.49
2022-11-21T03:30:22.146Z,6.51
2022-11-21T03:32:49.129Z,6.52
2022-11-21T03:35:16.405Z,6.54
2022-11-21T03:37:44.712Z,6.53
2022-11-21T03:40:12.146Z,6.56
2022-11-21T03:42:39.021Z,6.57
2022-11-21T03:45:06.657Z,6.56
2022-11-21T03:47:34.367Z,6.55
2022-11-21T03:50:01.220Z,6.53
2022-11-21T03:52:28.197Z,6.55
2022-11-21T03:54:54.942Z,6.55
2022-11-21T03:57:21.956Z,6.56
2022-11-21T03:59:48.813Z,6.63
2022-11-21T04:02:17.687Z,6.64
2022-11-21T04:04:44.477Z,6.66
2022-11-21T04:07:11.344Z,6.66
2022-11-21T04:09:38.169Z,6.67
2022-11-21T04:12:07.743Z,6.66
2022-11-21T04:14:34.860Z,6.65
2022-11-21T04:17:01.744Z,6.67
2022-11-21T04:19:28.580Z,6.68
2022-11-21T04:21:55.345Z,6.66
2022-11-21T04:24:22.116Z,6.65
2022-11-21T04:26:48.895Z,6.65
2022-11-21T04:29:15.583Z,6.66
2022-11-21T04:31:42.324Z,6.64
2022-11-21T04:34:09.089Z,6.61
2022-11-21T04:36:35.845Z,6.65
2022-11-21T04:39:02.648Z,6.65
2022-11-21T04:41:29.470Z,6.63
2022-11-21T04:43:56.235Z,6.63
2022-11-21T04:46:22.984Z,6.62
2022-11-21T04:48:49.784Z,6.62
2022-11-21T04:51:16.587Z,6.57
2022-11-21T04:53:43.508Z,6.55
2022-11-21T04:56:10.460Z,6.60
2022-11-21T04:58:37.238Z,6.59
2022-11-21T05:01:08.835Z,6.56
2022-11-21T05:03:36.686Z,6.55
2022-11-21T05:06:03.868Z,6.54
2022-11-21T05:08:30.713Z,6.48
2022-11-21T05:11:16.311Z,6.47
2022-11-21T05:13:43.157Z,6.49
2022-11-21T05:16:09.923Z,6.49
2022-11-21T05:18:36.726Z,6.52
2022-11-21T05:21:04.004Z,6.53
2022-11-21T05:23:30.736Z,6.49
2022-11-21T05:25:57.725Z,6.43
2022-11-21T05:28:27.884Z,6.44
2022-11-21T05:30:54.601Z,6.41
2022-11-21T05:33:21.654Z,6.38
2022-11-21T05:35:48.393Z,6.41
2022-11-21T05:38:15.176Z,6.40
2022-11-21T05:40:41.957Z,6.35
2022-11-21T05:43:30.363Z,6.38
2022-11-21T05:45:57.402Z,6.36
2022-11-21T05:48:24.222Z,6.36
2022-11-21T05:50:51.034Z,6.33
2022-11-21T05:53:18.413Z,6.35
2022-11-21T05:55:45.640Z,6.37
2022-11-21T05:58:12.851Z,6.40
2022-11-21T06:00:40.000Z,6.45
2022-11-21T06:03:27.011Z,6.40
2022-11-21T06:06:13.662Z,6.40
2022-11-21T06:08:43.601Z,6.43
2022-11-21T06:11:12.495Z,6.44
2022-11-21T06:13:39.848Z,6.47
2022-11-21T06:16:12.476Z,6.46
2022-11-21T06:18:41.981Z,6.47
2022-11-21T06:21:14.876Z,6.50
2022-11-21T06:23:42.088Z,6.47
2022-11-21T06:26:13.419Z,6.48
2022-11-21T06:28:41.562Z,6.48
2022-11-21T06:31:17.131Z,6.51
2022-11-21T06:33:45.007Z,6.49
2022-11-21T06:36:15.069Z,6.50
2022-11-21T06:38:42.578Z,6.49
2022-11-21T06:41:21.044Z,6.51
2022-11-21T06:43:47.820Z,6.51
2022-11-21T06:46:15.572Z,6.49
2022-11-21T06:48:42.999Z,6.49
2022-11-21T06:51:17.546Z,6.49
2022-11-21T06:53:44.897Z,6.49
2022-11-21T06:56:11.765Z,6.50
2022-11-21T06:58:38.870Z,6.49
2022-11-21T07:01:07.564Z,6.47
2022-11-21T07:03:35.293Z,6.47
2022-11-21T07:06:03.167Z,6.47
2022-11-21T07:08:31.149Z,6.46
2022-11-21T07:11:25.058Z,6.46
2022-11-21T07:13:52.931Z,6.48
2022-11-21T07:16:19.735Z,6.51
2022-11-21T07:18:46.534Z,6.51
2022-11-21T07:21:13.275Z,6.53
2022-11-21T07:23:40.213Z,6.53
2022-11-21T07:26:08.433Z,6.65
2022-11-21T07:28:35.402Z,6.75
2022-11-21T07:31:07.117Z,6.73
2022-11-21T07:33:39.959Z,6.72
2022-11-21T07:36:07.172Z,6.78
2022-11-21T07:38:33.931Z,6.77
2022-11-21T07:41:00.684Z,6.78
2022-11-21T07:43:27.494Z,6.81
2022-11-21T07:45:54.351Z,6.80
2022-11-21T07:48:21.384Z,6.78
2022-11-21T07:50:48.126Z,6.81
2022-11-21T07:53:14.981Z,6.80
2022-11-21T07:55:42.526Z,6.83
2022-11-21T07:58:17.392Z,6.93
2022-11-21T08:00:44.261Z,7.00
2022-11-21T08:03:12.989Z,7.00
2022-11-21T08:05:42.088Z,6.87
2022-11-21T08:08:10.814Z,6.84
2022-11-21T08:10:39.539Z,6.90
2022-11-21T08:13:06.496Z,6.83
2022-11-21T08:15:33.237Z,6.78
2022-11-21T08:18:07.678Z,6.82
2022-11-21T08:20:34.494Z,6.85
2022-11-21T08:23:01.555Z,6.90
2022-11-21T08:25:28.332Z,6.99
2022-11-21T08:27:58.947Z,7.08
2022-11-21T08:30:26.270Z,7.15
2022-11-21T08:32:53.197Z,7.20
2022-11-21T08:35:20.008Z,7.21
2022-11-21T08:37:46.821Z,7.16
2022-11-21T08:40:13.643Z,7.13
2022-11-21T08:42:40.401Z,7.10
2022-11-21T08:45:09.949Z,7.12
2022-11-21T08:47:36.694Z,7.16
2022-11-21T08:50:08.821Z,7.34
2022-11-21T08:52:36.055Z,7.67
2022-11-21T08:55:03.021Z,7.98
2022-11-21T08:57:31.394Z,8.29
2022-11-21T08:59:58.195Z,8.50
2022-11-21T09:02:24.997Z,8.68
2022-11-21T09:04:53.339Z,8.73
2022-11-21T09:07:20.105Z,8.77
2022-11-21T09:09:46.959Z,8.76
2022-11-21T09:12:13.937Z,8.71
2022-11-21T09:14:59.519Z,8.79
2022-11-21T09:17:45.013Z,8.96
2022-11-21T09:20:11.794Z,8.86
2022-11-21T09:22:38.625Z,8.93
2022-11-21T09:25:05.769Z,9.10
2022-11-21T09:27:32.512Z,9.22
2022-11-21T09:29:59.447Z,9.32
2022-11-21T09:32:28.766Z,9.43
2022-11-21T09:34:55.499Z,9.47
2022-11-21T09:37:22.434Z,9.44
2022-11-21T09:39:49.173Z,9.54
2022-11-21T09:42:47.816Z,9.75
2022-11-21T09:45:30.134Z,10.01
2022-11-21T09:47:57.084Z,10.27
2022-11-21T09:50:32.775Z,10.26
2022-11-21T09:53:13.083Z,10.06
2022-11-21T09:55:51.603Z,9.50
2022-11-21T09:58:28.244Z,9.27
2022-11-21T10:00:55.344Z,9.33
2022-11-21T10:03:27.040Z,9.36
2022-11-21T10:06:38.881Z,9.48
2022-11-21T10:09:38.042Z,9.47
2022-11-21T10:12:38.628Z,9.65
2022-11-21T10:15:47.246Z,9.67
2022-11-21T10:18:41.693Z,9.41
2022-11-21T10:21:34.271Z,9.18
2022-11-21T10:25:02.917Z,8.98
2022-11-21T10:27:41.525Z,8.98
2022-11-21T10:30:16.728Z,8.89
2022-11-21T10:32:47.746Z,8.89
2022-11-21T10:35:20.561Z,8.96
2022-11-21T10:37:53.486Z,8.94
2022-11-21T10:40:40.242Z,9.00
2022-11-21T10:43:40.993Z,9.08
2022-11-21T10:46:11.051Z,9.34
2022-11-21T10:48:37.951Z,9.42
2022-11-21T10:51:14.001Z,9.38
2022-11-21T10:54:04.638Z,9.44
2022-11-21T10:56:36.361Z,9.50
2022-11-21T10:59:23.430Z,9.48
2022-11-21T11:02:12.714Z,9.68
2022-11-21T11:04:47.368Z,9.86
2022-11-21T11:07:28.613Z,10.15
2022-11-21T11:10:28.557Z,10.29
2022-11-21T11:13:44.638Z,10.71
2022-11-21T11:16:11.165Z,10.97
2022-11-21T11:18:46.991Z,11.03
2022-11-21T11:21:23.632Z,11.35
2022-11-21T11:23:52.771Z,11.50
2022-11-21T11:26:29.338Z,11.62
2022-11-21T11:29:09.551Z,11.74
2022-11-21T11:31:46.023Z,11.92
2022-11-21T11:34:15.104Z,12.23
2022-11-21T11:37:09.385Z,12.45
2022-11-21T11:40:13.808Z,12.27
2022-11-21T11:43:17.586Z,12.28
2022-11-21T11:46:33.803Z,12.14
2022-11-21T11:49:23.458Z,12.43
2022-11-21T11:51:59.249Z,12.60
2022-11-21T11:54:49.620Z,12.52
2022-11-21T11:57:17.621Z,12.37
2022-11-21T11:59:59.366Z,12.23
2022-11-21T12:02:43.649Z,12.20
2022-11-21T12:05:24.792Z,12.19
2022-11-21T12:12:08.335Z,12.54
2022-11-21T12:15:11.904Z,12.55
2022-11-21T12:18:16.181Z,12.21
2022-11-21T12:20:49.114Z,12.04
2022-11-21T12:23:16.197Z,12.32
2022-11-21T12:25:57.569Z,12.70
2022-11-21T12:28:53.868Z,12.76
2022-11-21T12:31:59.759Z,12.80
2022-11-21T12:34:32.761Z,12.64
2022-11-21T12:37:16.916Z,12.19
2022-11-21T12:39:53.417Z,11.94
2022-11-21T12:42:51.359Z,12.01
2022-11-21T12:45:32.445Z,11.80
2022-11-21T12:48:35.663Z,11.79
2022-11-21T12:51:36.399Z,11.82
2022-11-21T12:54:32.766Z,11.78
2022-11-21T12:57:16.464Z,11.62
2022-11-21T13:00:10.058Z,11.40
2022-11-21T13:03:14.390Z,11.42
2022-11-21T13:05:50.954Z,11.30
2022-11-21T13:08:25.369Z,11.27
2022-11-21T13:11:31.105Z,11.21
2022-11-21T13:14:19.329Z,11.16
2022-11-21T13:17:03.637Z,11.15
2022-11-21T13:19:35.323Z,11.09
2022-11-21T13:22:02.270Z,10.96
2022-11-21T13:24:59.204Z,10.78
2022-11-21T13:27:32.197Z,10.64
2022-11-21T13:30:08.056Z,10.60
2022-11-21T13:32:52.174Z,10.51
2022-11-21T13:35:21.865Z,10.42
2022-11-21T13:38:08.588Z,10.34
2022-11-21T13:41:00.450Z,10.29
2022-11-21T13:43:35.511Z,10.30
2022-11-21T13:46:02.584Z,10.25
2022-11-21T13:48:34.540Z,10.26
2022-11-21T13:51:26.231Z,10.31
2022-11-21T13:54:22.291Z,10.33
2022-11-21T13:57:25.049Z,10.37
2022-11-21T14:00:13.259Z,10.39
2022-11-21T14:02:51.547Z,10.30
2022-11-21T14:05:40.291Z,10.17
2022-11-21T14:08:22.527Z,10.06
2022-11-21T14:10:52.775Z,9.98
2022-11-21T14:13:28.209Z,9.98
2022-11-21T14:16:10.452Z,9.91
2022-11-21T14:18:39.066Z,9.89
2022-11-21T14:21:08.247Z,9.84
2022-11-21T14:23:35.386Z,9.74
2022-11-21T14:26:05.937Z,9.63
2022-11-21T14:28:34.912Z,9.60
2022-11-21T14:31:03.904Z,9.56
2022-11-21T14:33:38.769Z,9.51
2022-11-21T14:36:23.697Z,9.49
2022-11-21T14:39:21.361Z,9.48
2022-11-21T14:41:49.639Z,9.41
2022-11-21T14:44:19.657Z,9.37
2022-11-21T14:46:47.708Z,9.33
2022-11-21T14:49:14.519Z,9.27
2022-11-21T14:51:43.118Z,9.17
2022-11-21T14:54:32.535Z,9.14
2022-11-21T14:57:06.475Z,9.13
2022-11-21T14:59:40.318Z,9.12
2022-11-21T15:02:18.087Z,9.09
2022-11-21T15:04:46.536Z,9.04
2022-11-21T15:07:21.155Z,9.09
2022-11-21T15:12:46.189Z,9.00
2022-11-21T15:15:25.836Z,8.80
2022-11-21T15:20:49.522Z,8.65
2022-11-21T15:23:26.139Z,8.55
2022-11-21T15:25:57.878Z,8.52
2022-11-21T15:28:27.716Z,8.51
2022-11-21T15:31:20.365Z,8.43
2022-11-21T15:34:27.349Z,8.34
2022-11-21T15:36:43.842Z,8.25
2022-11-21T15:39:22.392Z,8.20
2022-11-21T15:41:49.163Z,8.18
2022-11-21T15:44:21.986Z,8.13
2022-11-21T15:46:51.843Z,8.12
2022-11-21T15:49:32.552Z,8.05
2022-11-21T15:52:09.544Z,7.97
2022-11-21T15:54:47.328Z,7.80
2022-11-21T15:57:16.662Z,7.75
2022-11-21T15:59:44.612Z,7.70
2022-11-21T16:02:13.913Z,7.58
2022-11-21T16:04:41.962Z,7.52
2022-11-21T16:07:08.761Z,7.45
2022-11-21T16:09:36.455Z,7.43
2022-11-21T16:12:03.426Z,7.41
2022-11-21T16:14:30.288Z,7.49
2022-11-21T16:16:57.012Z,7.49
2022-11-21T16:19:23.803Z,7.48
2022-11-21T16:21:50.547Z,7.42
2022-11-21T16:24:17.390Z,7.31
2022-11-21T16:26:44.274Z,7.33
2022-11-21T16:29:11.325Z,7.32
2022-11-21T16:31:38.087Z,7.36
2022-11-21T16:34:04.836Z,7.40
2022-11-21T16:36:32.251Z,7.45
2022-11-21T16:39:07.656Z,7.28
2022-11-21T16:41:36.019Z,7.09
2022-11-21T16:44:02.791Z,7.04
2022-11-21T16:46:29.572Z,6.99
2022-11-21T16:49:03.791Z,7.00
2022-11-21T16:51:30.844Z,6.97
2022-11-21T16:54:00.658Z,6.92
2022-11-21T16:56:29.781Z,6.93
2022-11-21T16:58:56.479Z,6.93
2022-11-21T17:01:26.211Z,6.94
2022-11-21T17:03:53.458Z,6.90
2022-11-21T17:06:23.675Z,6.91
2022-11-21T17:08:50.538Z,6.92
2022-11-21T17:11:29.025Z,6.95
2022-11-21T17:14:00.833Z,6.91
2022-11-21T17:16:29.052Z,6.85
2022-11-21T17:18:57.716Z,6.88
2022-11-21T17:21:25.771Z,6.93
2022-11-21T17:23:53.187Z,6.99
2022-11-21T17:26:22.350Z,7.03
2022-11-21T17:29:15.553Z,7.00
2022-11-21T17:31:42.779Z,6.97
2022-11-21T17:34:09.501Z,6.95
2022-11-21T17:36:36.206Z,6.94
2022-11-21T17:39:03.455Z,6.88
2022-11-21T17:41:30.254Z,6.90
2022-11-21T17:43:58.233Z,6.96
2022-11-21T17:46:25.918Z,7.01
2022-11-21T17:48:57.306Z,7.07
2022-11-21T17:51:28.841Z,7.10
2022-11-21T17:53:56.500Z,7.12
2022-11-21T17:56:26.258Z,7.07
2022-11-21T17:58:53.432Z,7.05
2022-11-21T18:01:21.945Z,7.06
2022-11-21T18:03:57.670Z,7.06
2022-11-21T18:06:28.270Z,7.07
2022-11-21T18:08:58.346Z,7.08
2022-11-21T18:11:31.901Z,7.12
2022-11-21T18:14:02.206Z,7.13
2022-11-21T18:16:31.832Z,7.12
2022-11-21T18:18:59.309Z,7.11
2022-11-21T18:21:29.656Z,7.08
2022-11-21T18:23:57.619Z,7.08
2022-11-21T18:26:27.078Z,7.10
2022-11-21T18:31:46.509Z,7.06
2022-11-21T18:34:13.394Z,7.06
2022-11-21T18:36:40.275Z,7.08
2022-11-21T18:39:14.280Z,7.12
2022-11-21T18:41:43.085Z,7.16
2022-11-21T18:44:10.440Z,7.17
2022-11-21T18:46:38.572Z,7.14
2022-11-21T18:49:07.350Z,7.13
2022-11-21T18:51:35.646Z,7.15
2022-11-21T18:54:07.290Z,7.20
2022-11-21T18:56:36.250Z,7.19
2022-11-21T18:59:05.423Z,7.20
2022-11-21T19:01:33.097Z,7.15
2022-11-21T19:04:00.036Z,7.16
2022-11-21T19:06:27.769Z,7.17
2022-11-21T19:08:57.013Z,7.16
2022-11-21T19:11:26.519Z,7.25
2022-11-21T19:13:54.682Z,7.31
2022-11-21T19:16:24.791Z,7.29
2022-11-21T19:21:41.564Z,7.38
2022-11-21T19:24:13.255Z,7.40
2022-11-21T19:26:40.652Z,7.41
2022-11-21T19:29:07.725Z,7.39
2022-11-21T19:31:39.117Z,7.38
2022-11-21T19:34:09.743Z,7.41
2022-11-21T19:36:36.518Z,7.41
2022-11-21T19:39:03.321Z,7.41
2022-11-21T19:41:30.712Z,7.42
2022-11-21T19:44:01.755Z,7.45
2022-11-21T19:46:35.200Z,7.44
2022-11-21T19:49:03.009Z,7.43
2022-11-21T19:51:36.145Z,7.45
2022-11-21T19:54:07.169Z,7.47
2022-11-21T19:56:34.766Z,7.50
2022-11-21T19:59:01.737Z,7.51
2022-11-21T20:01:30.517Z,7.52
2022-11-21T20:03:59.965Z,7.53
2022-11-21T20:06:30.629Z,7.56
2022-11-21T20:08:59.916Z,7.57
2022-11-21T20:11:28.715Z,7.53
2022-11-21T20:13:55.974Z,7.50
2022-11-21T20:16:29.041Z,7.48
2022-11-21T20:18:58.614Z,7.40
2022-11-21T20:21:26.309Z,7.38
2022-11-21T20:23:53.167Z,7.40
2022-11-21T20:26:21.617Z,7.37
2022-11-21T20:28:49.419Z,7.35
2022-11-21T20:31:22.034Z,7.34
2022-11-21T20:33:51.950Z,7.34
2022-11-21T20:36:22.264Z,7.34
2022-11-21T20:39:13.189Z,7.30
2022-11-21T20:41:41.361Z,7.26
2022-11-21T20:45:30.046Z,7.27
2022-11-21T20:47:07.430Z,7.23
2022-11-21T20:49:34.205Z,7.23
2022-11-21T20:54:47.871Z,7.22
2022-11-21T20:57:15.604Z,7.18
2022-11-21T20:59:43.065Z,7.16
2022-11-21T21:02:12.213Z,7.17
2022-11-21T21:04:39.701Z,7.22
2022-11-21T21:07:06.544Z,7.23
2022-11-21T21:09:33.349Z,7.22
2022-11-21T21:12:00.139Z,7.24
2022-11-21T21:14:27.073Z,7.24
2022-11-21T21:16:53.799Z,7.25
2022-11-21T21:19:21.510Z,7.25
2022-11-21T21:21:48.601Z,7.27
2022-11-21T21:24:15.931Z,7.23
2022-11-21T21:26:47.862Z,7.22
2022-11-21T21:29:18.538Z,7.27
2022-11-21T21:31:51.065Z,7.28
2022-11-21T21:34:20.673Z,7.27
2022-11-21T21:36:47.920Z,7.22
2022-11-21T21:39:14.723Z,7.19
2022-11-21T21:41:44.589Z,7.21
2022-11-21T21:44:12.133Z,7.23
2022-11-21T21:46:38.827Z,7.22
2022-11-21T21:49:05.563Z,7.21
2022-11-21T21:51:32.475Z,7.19
2022-11-21T21:54:00.133Z,7.21
2022-11-21T21:56:28.594Z,7.20
2022-11-21T21:58:57.209Z,7.27
2022-11-21T22:01:26.972Z,7.29
2022-11-21T22:03:56.032Z,7.31
2022-11-21T22:06:23.287Z,7.25
2022-11-21T22:08:51.079Z,7.24
2022-11-21T22:11:21.938Z,7.24
2022-11-21T22:13:52.369Z,7.25
2022-11-21T22:16:19.500Z,7.25
2022-11-21T22:18:46.467Z,7.26
2022-11-21T22:21:24.402Z,7.30
2022-11-21T22:24:22.913Z,7.28
2022-11-21T22:26:38.625Z,7.23
2022-11-21T22:29:05.639Z,7.21
2022-11-21T22:31:32.834Z,7.17
2022-11-21T22:34:00.284Z,7.10
2022-11-21T22:36:27.170Z,7.06
2022-11-21T22:38:54.866Z,7.05
2022-11-21T22:41:24.389Z,7.03
2022-11-21T22:43:53.940Z,7.06
2022-11-21T22:46:21.408Z,7.06
2022-11-21T22:48:48.700Z,7.09
2022-11-21T22:51:18.815Z,7.11
2022-11-21T22:53:47.018Z,7.11
2022-11-21T22:56:16.539Z,7.08
2022-11-21T22:58:43.652Z,7.10
2022-11-21T23:01:22.017Z,7.12
2022-11-21T23:03:49.527Z,7.10
2022-11-21T23:06:18.653Z,7.09
2022-11-21T23:08:46.311Z,7.08
2022-11-21T23:11:16.096Z,7.10
2022-11-21T23:13:44.255Z,7.11
2022-11-21T23:16:14.040Z,7.14
2022-11-21T23:18:43.411Z,7.10
2022-11-21T23:21:11.720Z,7.11
2022-11-21T23:23:38.727Z,7.07
2022-11-21T23:26:06.357Z,7.08
2022-11-21T23:28:33.849Z,7.05
2022-11-21T23:31:00.888Z,7.07
2022-11-21T23:33:27.737Z,7.06
2022-11-21T23:35:55.184Z,7.00
2022-11-21T23:38:22.057Z,7.01
2022-11-21T23:40:49.899Z,7.03
2022-11-21T23:43:18.071Z,7.08
2022-11-21T23:45:49.723Z,7.11
2022-11-21T23:48:17.514Z,7.11
2022-11-21T23:50:47.272Z,7.11
2022-11-21T23:53:14.209Z,7.11
2022-11-21T23:55:40.983Z,7.12
2022-11-21T23:58:08.170Z,7.15
